createdAt,value
2023-05-15T00:01:47.569Z,100.00
2023-05-15T00:04:16.603Z,100.00
2023-05-15T00:06:44.823Z,100.00
2023-05-15T00:09:13.040Z,100.00
2023-05-15T00:11:41.149Z,100.00
2023-05-15T00:14:09.312Z,100.00
2023-05-15T00:16:37.597Z,100.00
2023-05-15T00:19:07.746Z,100.00
2023-05-15T00:21:35.965Z,100.00
2023-05-15T00:24:04.229Z,100.00
2023-05-15T00:26:32.326Z,100.00
2023-05-15T00:29:00.527Z,100.00
2023-05-15T00:31:28.734Z,100.00
2023-05-15T00:33:56.912Z,100.00
2023-05-15T00:36:26.622Z,100.00
2023-05-15T00:38:54.834Z,100.00
2023-05-15T00:41:24.236Z,100.00
2023-05-15T00:43:54.344Z,100.00
2023-05-15T00:46:23.467Z,100.00
2023-05-15T00:48:52.261Z,100.00
2023-05-15T00:51:20.698Z,100.00
2023-05-15T00:53:52.427Z,100.00
2023-05-15T00:56:21.726Z,100.00
2023-05-15T00:58:50.703Z,100.00
2023-05-15T01:01:19.822Z,100.00
2023-05-15T01:03:48.096Z,100.00
2023-05-15T01:06:16.208Z,100.00
2023-05-15T01:08:46.896Z,100.00
2023-05-15T01:11:17.948Z,100.00
2023-05-15T01:13:47.309Z,100.00
2023-05-15T01:16:15.487Z,100.00
2023-05-15T01:18:43.686Z,100.00
2023-05-15T01:21:56.484Z,100.00
2023-05-15T01:24:44.392Z,100.00
2023-05-15T01:27:30.958Z,100.00
2023-05-15T01:30:10.578Z,100.00
2023-05-15T01:32:45.172Z,100.00
2023-05-15T01:35:21.500Z,100.00
2023-05-15T01:37:53.693Z,100.00
2023-05-15T01:40:26.342Z,100.00
2023-05-15T01:43:01.090Z,100.00
2023-05-15T01:45:32.188Z,100.00
2023-05-15T01:48:01.725Z,100.00
2023-05-15T01:50:34.469Z,100.00
2023-05-15T01:53:04.378Z,100.00
2023-05-15T01:55:32.780Z,100.00
2023-05-15T01:58:05.630Z,100.00
2023-05-15T02:00:34.373Z,100.00
2023-05-15T02:03:03.406Z,100.00
2023-05-15T02:05:32.318Z,100.00
2023-05-15T02:08:01.857Z,100.00
2023-05-15T02:10:30.601Z,100.00
2023-05-15T02:12:59.195Z,100.00
2023-05-15T02:15:29.996Z,100.00
2023-05-15T02:17:58.205Z,100.00
2023-05-15T02:20:26.430Z,100.00
2023-05-15T02:22:55.409Z,100.00
2023-05-15T02:25:34.026Z,100.00
2023-05-15T02:28:04.022Z,100.00
2023-05-15T02:30:39.543Z,100.00
2023-05-15T02:33:20.948Z,100.00
2023-05-15T02:35:54.057Z,100.00
2023-05-15T02:38:30.501Z,100.00
2023-05-15T02:41:00.344Z,100.00
2023-05-15T02:43:29.332Z,100.00
2023-05-15T02:46:00.655Z,100.00
2023-05-15T02:48:29.066Z,100.00
2023-05-15T02:50:57.408Z,100.00
2023-05-15T02:53:25.590Z,100.00
2023-05-15T02:55:53.834Z,100.00
2023-05-15T02:58:22.134Z,100.00
2023-05-15T03:00:50.292Z,100.00
2023-05-15T03:03:19.875Z,100.00
2023-05-15T03:05:48.076Z,100.00
2023-05-15T03:08:16.309Z,100.00
2023-05-15T03:10:44.697Z,100.00
2023-05-15T03:13:12.935Z,100.00
2023-05-15T03:15:41.205Z,100.00
2023-05-15T03:18:09.368Z,100.00
2023-05-15T03:20:38.999Z,100.00
2023-05-15T03:23:07.271Z,100.00
2023-05-15T03:25:35.446Z,100.00
2023-05-15T03:28:03.574Z,100.00
2023-05-15T03:30:31.689Z,100.00
2023-05-15T03:32:59.929Z,100.00
2023-05-15T03:35:28.091Z,100.00
2023-05-15T03:37:57.773Z,100.00
2023-05-15T03:40:25.882Z,100.00
2023-05-15T03:42:54.020Z,100.00
2023-05-15T03:45:22.796Z,100.00
2023-05-15T03:47:51.288Z,100.00
2023-05-15T03:50:19.512Z,100.00
2023-05-15T03:52:47.655Z,100.00
2023-05-15T03:55:17.422Z,100.00
2023-05-15T03:57:45.700Z,100.00
2023-05-15T04:00:15.528Z,100.00
2023-05-15T04:02:44.555Z,100.00
2023-05-15T04:05:12.779Z,100.00
2023-05-15T04:07:40.949Z,100.00
2023-05-15T04:10:09.888Z,100.00
2023-05-15T04:12:39.524Z,100.00
2023-05-15T04:15:18.813Z,100.00
2023-05-15T04:17:48.224Z,100.00
2023-05-15T04:20:18.010Z,100.00
2023-05-15T04:22:47.037Z,100.00
2023-05-15T04:25:16.416Z,100.00
2023-05-15T04:27:46.346Z,100.00
2023-05-15T04:30:15.244Z,100.00
2023-05-15T04:32:43.621Z,100.00
2023-05-15T04:35:13.564Z,100.00
2023-05-15T04:37:43.683Z,100.00
2023-05-15T04:40:14.926Z,100.00
2023-05-15T04:42:43.594Z,100.00
2023-05-15T04:45:13.181Z,100.00
2023-05-15T04:47:41.626Z,100.00
2023-05-15T04:50:10.460Z,100.00
2023-05-15T04:52:38.671Z,100.00
2023-05-15T04:55:08.354Z,100.00
2023-05-15T04:57:36.647Z,100.00
2023-05-15T05:00:10.315Z,100.00
2023-05-15T05:02:40.440Z,100.00
2023-05-15T05:05:09.848Z,100.00
2023-05-15T05:07:38.183Z,100.00
2023-05-15T05:10:07.477Z,100.00
2023-05-15T05:12:35.592Z,100.00
2023-05-15T05:15:03.997Z,100.00
2023-05-15T05:17:32.252Z,100.00
2023-05-15T05:20:01.962Z,100.00
2023-05-15T05:22:30.033Z,100.00
2023-05-15T05:24:58.227Z,100.00
2023-05-15T05:27:26.974Z,100.00
2023-05-15T05:29:55.088Z,100.00
2023-05-15T05:32:23.250Z,100.00
2023-05-15T05:34:51.492Z,100.00
2023-05-15T05:37:21.057Z,100.00
2023-05-15T05:39:49.549Z,100.00
2023-05-15T05:42:17.645Z,100.00
2023-05-15T05:44:45.929Z,100.00
2023-05-15T05:47:14.561Z,100.00
2023-05-15T05:49:42.918Z,100.00
2023-05-15T05:52:11.110Z,100.00
2023-05-15T05:54:40.618Z,100.00
2023-05-15T05:57:08.844Z,100.00
2023-05-15T05:59:37.427Z,100.00
2023-05-15T06:02:06.053Z,100.00
2023-05-15T06:04:34.733Z,100.00
2023-05-15T06:07:03.513Z,100.00
2023-05-15T06:09:32.113Z,100.00
2023-05-15T06:12:04.767Z,100.00
2023-05-15T06:14:34.481Z,100.00
2023-05-15T06:17:05.519Z,100.00
2023-05-15T06:19:33.826Z,100.00
2023-05-15T06:22:04.618Z,100.00
2023-05-15T06:24:32.887Z,100.00
2023-05-15T06:27:04.135Z,100.00
2023-05-15T06:29:35.847Z,100.00
2023-05-15T06:32:04.798Z,100.00
2023-05-15T06:34:33.437Z,100.00
2023-05-15T06:37:05.711Z,100.00
2023-05-15T06:39:35.236Z,100.00
2023-05-15T06:42:06.362Z,100.00
2023-05-15T06:44:37.481Z,100.00
2023-05-15T06:47:06.581Z,100.00
2023-05-15T06:49:35.969Z,100.00
2023-05-15T06:52:04.295Z,100.00
2023-05-15T06:54:32.607Z,100.00
2023-05-15T06:57:03.348Z,100.00
2023-05-15T06:59:35.697Z,100.00
2023-05-15T07:02:04.150Z,100.00
2023-05-15T07:04:32.682Z,100.00
2023-05-15T07:07:01.040Z,100.00
2023-05-15T07:09:32.279Z,100.00
2023-05-15T07:12:00.797Z,100.00
2023-05-15T07:14:29.043Z,100.00
2023-05-15T07:16:58.845Z,100.00
2023-05-15T07:19:28.239Z,100.00
2023-05-15T07:21:56.670Z,100.00
2023-05-15T07:24:24.808Z,100.00
2023-05-15T07:26:58.752Z,100.00
2023-05-15T07:29:29.638Z,95.23
2023-05-15T07:32:01.694Z,100.00
2023-05-15T07:34:30.919Z,98.56
2023-05-15T07:36:59.089Z,94.62
2023-05-15T07:39:30.060Z,90.39
2023-05-15T07:41:59.798Z,94.27
2023-05-15T07:44:28.056Z,88.66
2023-05-15T07:46:58.221Z,83.26
2023-05-15T07:49:26.887Z,78.01
2023-05-15T07:51:55.259Z,75.97
2023-05-15T07:54:26.951Z,88.46
2023-05-15T07:56:58.712Z,77.01
2023-05-15T07:59:27.378Z,78.53
2023-05-15T08:01:55.567Z,79.81
2023-05-15T08:04:25.344Z,85.58
2023-05-15T08:06:53.674Z,80.51
2023-05-15T08:09:21.939Z,68.24
2023-05-15T08:11:52.640Z,73.62
2023-05-15T08:14:23.599Z,79.07
2023-05-15T08:16:53.245Z,75.99
2023-05-15T08:19:22.273Z,72.15
2023-05-15T08:21:52.016Z,74.06
2023-05-15T08:24:20.276Z,72.69
2023-05-15T08:26:48.589Z,75.58
2023-05-15T08:29:16.904Z,67.42
2023-05-15T08:31:45.198Z,65.64
2023-05-15T08:34:13.670Z,68.07
2023-05-15T08:36:41.752Z,64.38
2023-05-15T08:39:14.158Z,63.36
2023-05-15T08:41:49.246Z,64.59
2023-05-15T08:44:18.567Z,62.46
2023-05-15T08:46:49.395Z,59.28
2023-05-15T08:49:24.841Z,62.47
2023-05-15T08:51:54.716Z,64.09
2023-05-15T08:54:25.451Z,66.63
2023-05-15T08:56:55.600Z,68.61
2023-05-15T08:59:23.982Z,73.29
2023-05-15T09:01:52.934Z,72.77
2023-05-15T09:04:22.520Z,73.98
2023-05-15T09:06:51.098Z,80.32
2023-05-15T09:09:20.222Z,79.49
2023-05-15T09:11:52.048Z,78.07
2023-05-15T09:14:20.401Z,75.81
2023-05-15T09:16:53.526Z,77.00
2023-05-15T09:19:22.842Z,78.78
2023-05-15T09:21:51.483Z,80.45
2023-05-15T09:24:23.653Z,78.34
2023-05-15T09:27:08.683Z,79.27
2023-05-15T09:29:38.311Z,75.67
2023-05-15T09:32:09.170Z,69.70
2023-05-15T09:34:38.715Z,71.68
2023-05-15T09:37:09.353Z,63.37
2023-05-15T09:39:42.511Z,57.61
2023-05-15T09:42:13.975Z,60.05
2023-05-15T09:44:43.298Z,58.66
2023-05-15T09:47:12.315Z,50.98
2023-05-15T09:49:40.887Z,47.26
2023-05-15T09:52:10.975Z,47.95
2023-05-15T09:54:40.010Z,44.25
2023-05-15T09:57:14.676Z,46.45
2023-05-15T09:59:47.060Z,43.99
2023-05-15T10:02:23.593Z,40.34
2023-05-15T10:04:57.149Z,40.28
2023-05-15T10:07:36.184Z,41.35
2023-05-15T10:10:06.438Z,40.51
2023-05-15T10:12:37.143Z,40.19
2023-05-15T10:15:06.569Z,38.93
2023-05-15T10:17:36.532Z,39.46
2023-05-15T10:20:07.288Z,44.15
2023-05-15T10:22:39.647Z,47.43
2023-05-15T10:25:14.533Z,48.20
2023-05-15T10:27:44.752Z,52.76
2023-05-15T10:30:16.875Z,47.83
2023-05-15T10:32:46.162Z,45.39
2023-05-15T10:35:14.331Z,49.68
2023-05-15T10:37:42.930Z,43.96
2023-05-15T10:40:12.367Z,44.08
2023-05-15T10:42:44.708Z,39.14
2023-05-15T10:45:13.378Z,40.44
2023-05-15T10:47:43.435Z,37.09
2023-05-15T10:50:14.389Z,35.71
2023-05-15T10:52:43.481Z,37.74
2023-05-15T10:55:17.503Z,41.81
2023-05-15T10:57:48.309Z,43.84
2023-05-15T11:00:27.062Z,44.36
2023-05-15T11:02:57.293Z,41.47
2023-05-15T11:05:26.440Z,41.90
2023-05-15T11:08:28.518Z,43.58
2023-05-15T11:10:56.723Z,40.54
2023-05-15T11:13:26.832Z,42.30
2023-05-15T11:15:55.127Z,42.14
2023-05-15T11:18:23.290Z,45.75
2023-05-15T11:21:11.042Z,45.09
2023-05-15T11:23:41.270Z,43.72
2023-05-15T11:26:09.588Z,42.85
2023-05-15T11:28:47.249Z,40.86
2023-05-15T11:31:16.113Z,40.04
2023-05-15T11:33:44.422Z,36.26
2023-05-15T11:36:15.933Z,33.12
2023-05-15T11:38:45.036Z,32.40
2023-05-15T11:41:21.948Z,33.88
2023-05-15T11:43:51.884Z,35.90
2023-05-15T11:46:22.213Z,35.44
2023-05-15T11:48:51.939Z,34.09
2023-05-15T11:51:22.582Z,35.77
2023-05-15T11:53:52.228Z,35.01
2023-05-15T11:56:21.792Z,35.25
2023-05-15T11:58:52.119Z,36.57
2023-05-15T12:01:20.453Z,36.41
2023-05-15T12:03:50.281Z,37.41
2023-05-15T12:06:19.825Z,35.65
2023-05-15T12:08:53.066Z,37.84
2023-05-15T12:11:24.701Z,36.91
2023-05-15T12:13:55.201Z,39.02
2023-05-15T12:16:26.245Z,37.87
2023-05-15T12:18:54.679Z,36.28
2023-05-15T12:21:23.008Z,35.43
2023-05-15T12:24:06.399Z,36.59
2023-05-15T12:26:36.686Z,37.17
2023-05-15T12:29:07.155Z,36.34
2023-05-15T12:31:36.858Z,38.01
2023-05-15T12:34:05.242Z,36.10
2023-05-15T12:36:34.213Z,39.10
2023-05-15T12:39:07.950Z,36.81
2023-05-15T12:41:38.219Z,36.94
2023-05-15T12:44:08.003Z,39.37
2023-05-15T12:46:36.292Z,38.17
2023-05-15T12:49:04.618Z,39.42
2023-05-15T12:51:32.822Z,40.05
2023-05-15T12:54:00.985Z,39.87
2023-05-15T12:56:31.253Z,40.02
2023-05-15T12:58:59.851Z,41.76
2023-05-15T13:01:30.199Z,40.48
2023-05-15T13:03:59.088Z,41.50
2023-05-15T13:06:38.407Z,39.78
2023-05-15T13:09:13.666Z,40.91
2023-05-15T13:11:44.951Z,41.53
2023-05-15T13:14:17.621Z,41.30
2023-05-15T13:16:48.440Z,40.79
2023-05-15T13:19:17.567Z,40.57
2023-05-15T13:21:46.236Z,40.71
2023-05-15T13:24:14.566Z,41.92
2023-05-15T13:26:42.827Z,42.67
2023-05-15T13:29:10.891Z,43.12
2023-05-15T13:31:39.234Z,41.62
2023-05-15T13:34:09.243Z,43.89
2023-05-15T13:36:37.942Z,44.26
2023-05-15T13:39:06.606Z,41.72
2023-05-15T13:41:34.897Z,41.73
2023-05-15T13:44:03.007Z,42.29
2023-05-15T13:46:31.452Z,42.80
2023-05-15T13:48:59.732Z,42.46
2023-05-15T13:51:29.331Z,42.13
2023-05-15T13:53:57.571Z,41.23
2023-05-15T13:56:25.892Z,43.27
2023-05-15T13:58:54.075Z,41.12
2023-05-15T14:01:22.486Z,41.11
2023-05-15T14:03:50.734Z,40.67
2023-05-15T14:06:19.020Z,39.68
2023-05-15T14:08:48.530Z,41.28
2023-05-15T14:11:16.847Z,40.80
2023-05-15T14:13:44.901Z,39.96
2023-05-15T14:16:13.235Z,42.59
2023-05-15T14:18:41.361Z,40.93
2023-05-15T14:21:09.575Z,41.02
2023-05-15T14:23:37.776Z,41.34
2023-05-15T14:26:07.820Z,42.82
2023-05-15T14:28:36.202Z,44.41
2023-05-15T14:31:04.401Z,42.98
2023-05-15T14:33:32.646Z,43.35
2023-05-15T14:36:00.998Z,45.62
2023-05-15T14:38:29.228Z,43.66
2023-05-15T14:40:57.445Z,43.62
2023-05-15T14:43:30.273Z,43.92
2023-05-15T14:45:58.485Z,45.07
2023-05-15T14:48:26.901Z,42.70
2023-05-15T14:51:02.869Z,43.19
2023-05-15T14:53:31.280Z,42.49
2023-05-15T14:55:59.541Z,41.73
2023-05-15T14:58:29.306Z,44.42
2023-05-15T15:00:58.351Z,43.23
2023-05-15T15:03:29.083Z,43.50
2023-05-15T15:05:58.353Z,42.08
2023-05-15T15:08:26.881Z,42.24
2023-05-15T15:10:55.100Z,44.02
2023-05-15T15:13:24.337Z,43.98
2023-05-15T15:15:53.992Z,43.53
2023-05-15T15:18:22.415Z,42.87
2023-05-15T15:20:50.686Z,44.97
2023-05-15T15:23:18.950Z,42.44
2023-05-15T15:25:47.115Z,43.75
2023-05-15T15:28:15.252Z,44.87
2023-05-15T15:30:43.614Z,44.50
2023-05-15T15:33:13.236Z,43.94
2023-05-15T15:35:41.665Z,44.59
2023-05-15T15:38:11.807Z,44.63
2023-05-15T15:40:40.324Z,43.53
2023-05-15T15:43:08.409Z,44.43
2023-05-15T15:45:36.653Z,44.46
2023-05-15T15:48:05.123Z,45.42
2023-05-15T15:50:34.779Z,44.46
2023-05-15T15:53:03.019Z,44.44
2023-05-15T15:55:31.316Z,45.38
2023-05-15T15:57:59.542Z,44.99
2023-05-15T16:00:27.911Z,45.48
2023-05-15T16:02:56.196Z,45.90
2023-05-15T16:05:24.492Z,45.63
2023-05-15T16:07:54.091Z,45.42
2023-05-15T16:10:22.425Z,46.02
2023-05-15T16:12:51.292Z,50.33
2023-05-15T16:15:23.426Z,52.80
2023-05-15T16:17:54.304Z,56.30
2023-05-15T16:20:23.607Z,56.91
2023-05-15T16:22:53.401Z,57.11
2023-05-15T16:25:21.911Z,57.71
2023-05-15T16:27:50.162Z,58.51
2023-05-15T16:30:18.501Z,59.64
2023-05-15T16:32:46.956Z,61.46
2023-05-15T16:35:15.239Z,61.78
2023-05-15T16:37:43.679Z,62.42
2023-05-15T16:40:14.197Z,64.02
2023-05-15T16:42:43.075Z,63.75
2023-05-15T16:45:11.840Z,64.23
2023-05-15T16:47:41.400Z,62.89
2023-05-15T16:50:10.568Z,64.97
2023-05-15T16:52:45.332Z,64.84
2023-05-15T16:55:17.716Z,63.81
2023-05-15T16:57:46.787Z,66.36
2023-05-15T17:00:16.402Z,66.50
2023-05-15T17:02:45.194Z,68.39
2023-05-15T17:05:14.608Z,67.98
2023-05-15T17:07:44.503Z,68.25
2023-05-15T17:10:13.937Z,69.00
2023-05-15T17:12:43.754Z,69.85
2023-05-15T17:15:13.249Z,70.37
2023-05-15T17:17:41.450Z,71.05
2023-05-15T17:20:10.919Z,69.57
2023-05-15T17:22:39.064Z,70.18
2023-05-15T17:25:08.476Z,71.41
2023-05-15T17:27:39.953Z,72.24
2023-05-15T17:30:11.327Z,72.25
2023-05-15T17:32:40.345Z,73.73
2023-05-15T17:35:09.740Z,74.60
2023-05-15T17:37:38.051Z,75.75
2023-05-15T17:40:08.755Z,74.90
2023-05-15T17:42:37.231Z,75.72
2023-05-15T17:45:06.286Z,74.38
2023-05-15T17:47:36.003Z,75.81
2023-05-15T17:50:04.241Z,74.00
2023-05-15T17:52:32.527Z,75.17
2023-05-15T17:55:00.800Z,75.75
2023-05-15T17:57:29.143Z,78.14
2023-05-15T17:59:57.523Z,77.06
2023-05-15T18:02:26.039Z,78.84
2023-05-15T18:04:56.283Z,80.44
2023-05-15T18:07:35.337Z,82.36
2023-05-15T18:10:03.932Z,83.06
2023-05-15T18:12:32.134Z,82.07
2023-05-15T18:15:00.993Z,82.32
2023-05-15T18:17:30.241Z,81.72
2023-05-15T18:19:59.833Z,83.18
2023-05-15T18:22:28.054Z,80.20
2023-05-15T18:24:56.531Z,81.11
2023-05-15T18:27:24.683Z,82.51
2023-05-15T18:29:53.022Z,81.92
2023-05-15T18:32:21.292Z,82.69
2023-05-15T18:34:49.595Z,86.08
2023-05-15T18:37:19.368Z,85.60
2023-05-15T18:39:48.181Z,89.52
2023-05-15T18:42:17.356Z,92.52
2023-05-15T18:44:45.954Z,91.71
2023-05-15T18:47:14.579Z,92.95
2023-05-15T18:49:42.795Z,90.35
2023-05-15T18:52:11.146Z,91.45
2023-05-15T18:54:42.206Z,92.73
2023-05-15T18:57:10.429Z,92.52
2023-05-15T18:59:38.656Z,94.28
2023-05-15T19:02:07.098Z,97.72
2023-05-15T19:04:35.306Z,99.23
2023-05-15T19:07:03.469Z,100.00
2023-05-15T19:09:32.854Z,100.00
2023-05-15T19:12:02.506Z,100.00
2023-05-15T19:14:30.841Z,100.00
2023-05-15T19:16:59.105Z,100.00
2023-05-15T19:19:29.588Z,100.00
2023-05-15T19:21:57.823Z,100.00
2023-05-15T19:24:26.210Z,100.00
2023-05-15T19:26:54.421Z,100.00
2023-05-15T19:29:23.974Z,100.00
2023-05-15T19:31:52.398Z,100.00
2023-05-15T19:34:20.897Z,100.00
2023-05-15T19:36:50.867Z,100.00
2023-05-15T19:39:19.069Z,100.00
2023-05-15T19:41:49.680Z,100.00
2023-05-15T19:44:18.121Z,100.00
2023-05-15T19:46:47.970Z,100.00
2023-05-15T19:49:16.525Z,100.00
2023-05-15T19:51:44.624Z,100.00
2023-05-15T19:54:12.762Z,100.00
2023-05-15T19:56:41.109Z,100.00
2023-05-15T19:59:09.228Z,100.00
2023-05-15T20:01:38.045Z,100.00
2023-05-15T20:04:08.604Z,100.00
2023-05-15T20:06:37.351Z,100.00
2023-05-15T20:09:06.094Z,100.00
2023-05-15T20:11:34.342Z,100.00
2023-05-15T20:14:02.692Z,100.00
2023-05-15T20:16:31.159Z,100.00
2023-05-15T20:19:00.152Z,100.00
2023-05-15T20:21:31.574Z,100.00
2023-05-15T20:23:59.862Z,100.00
2023-05-15T20:26:28.441Z,100.00
2023-05-15T20:28:56.689Z,100.00
2023-05-15T20:31:25.045Z,100.00
2023-05-15T20:33:53.872Z,100.00
2023-05-15T20:36:22.905Z,100.00
2023-05-15T20:38:53.240Z,100.00
2023-05-15T20:41:23.199Z,100.00
2023-05-15T20:43:51.767Z,100.00
2023-05-15T20:46:20.227Z,100.00
2023-05-15T20:48:48.444Z,100.00
2023-05-15T20:51:16.485Z,100.00
2023-05-15T20:53:44.797Z,100.00
2023-05-15T20:56:14.380Z,100.00
2023-05-15T20:58:42.635Z,100.00
2023-05-15T21:01:10.839Z,100.00
2023-05-15T21:03:39.192Z,100.00
2023-05-15T21:06:07.507Z,100.00
2023-05-15T21:08:35.668Z,100.00
2023-05-15T21:11:03.875Z,100.00
2023-05-15T21:13:33.368Z,100.00
2023-05-15T21:16:01.448Z,100.00
2023-05-15T21:18:29.613Z,100.00
2023-05-15T21:20:57.890Z,100.00
2023-05-15T21:23:26.119Z,100.00
2023-05-15T21:25:54.641Z,100.00
2023-05-15T21:28:22.796Z,100.00
2023-05-15T21:30:52.724Z,100.00
2023-05-15T21:33:21.011Z,100.00
2023-05-15T21:35:49.249Z,100.00
2023-05-15T21:38:17.679Z,100.00
2023-05-15T21:40:45.860Z,100.00
2023-05-15T21:43:13.887Z,100.00
2023-05-15T21:45:42.057Z,100.00
2023-05-15T21:48:11.747Z,100.00
2023-05-15T21:50:39.876Z,100.00
2023-05-15T21:53:07.978Z,100.00
2023-05-15T21:55:36.077Z,100.00
2023-05-15T21:58:04.192Z,100.00
2023-05-15T22:00:32.380Z,100.00
2023-05-15T22:03:00.667Z,100.00
2023-05-15T22:05:30.520Z,100.00
2023-05-15T22:07:58.821Z,100.00
2023-05-15T22:10:27.200Z,100.00
2023-05-15T22:12:55.497Z,100.00
2023-05-15T22:15:23.989Z,100.00
2023-05-15T22:17:52.309Z,100.00
2023-05-15T22:20:20.591Z,100.00
2023-05-15T22:22:50.185Z,100.00
2023-05-15T22:25:18.289Z,100.00
2023-05-15T22:27:46.674Z,100.00
2023-05-15T22:30:15.059Z,100.00
2023-05-15T22:32:43.120Z,100.00
2023-05-15T22:35:12.049Z,100.00
2023-05-15T22:37:40.879Z,100.00
2023-05-15T22:40:12.499Z,100.00
2023-05-15T22:42:40.663Z,100.00
2023-05-15T22:45:10.152Z,100.00
2023-05-15T22:47:38.370Z,100.00
2023-05-15T22:50:07.809Z,100.00
2023-05-15T22:52:36.035Z,100.00
2023-05-15T22:55:04.030Z,100.00
2023-05-15T22:57:33.733Z,100.00
2023-05-15T23:00:01.991Z,100.00
2023-05-15T23:02:30.175Z,100.00
2023-05-15T23:04:58.361Z,100.00
2023-05-15T23:07:26.550Z,100.00
2023-05-15T23:09:54.636Z,100.00
2023-05-15T23:12:22.898Z,100.00
2023-05-15T23:14:52.499Z,100.00
2023-05-15T23:17:20.649Z,100.00
2023-05-15T23:19:48.925Z,100.00
2023-05-15T23:22:17.023Z,100.00
2023-05-15T23:24:45.248Z,100.00
2023-05-15T23:27:13.758Z,100.00
2023-05-15T23:29:41.970Z,100.00
2023-05-15T23:32:11.531Z,100.00
2023-05-15T23:34:39.796Z,100.00
2023-05-15T23:37:07.890Z,100.00
2023-05-15T23:39:36.342Z,100.00
2023-05-15T23:42:04.610Z,100.00
2023-05-15T23:44:32.725Z,100.00
2023-05-15T23:47:04.468Z,100.00
2023-05-15T23:49:36.421Z,100.00
2023-05-15T23:52:04.687Z,100.00
2023-05-15T23:54:32.931Z,100.00
2023-05-15T23:57:02.420Z,100.00
2023-05-15T23:59:31.122Z,100.00
